Flight Track Log - Related Links

Times and Time Zones

All times are in EDT time to prevent confusion due to time zone crossing. See the N683AE flight status page for this flight to view local times or setup timezone preferences in your user account.

Time Position Orientation Groundspeed Altitude Reporting Facility
EDT Latitude Longitude Course Direction KTS MPH feet Rate Location/Type
Wed 03:38:32 PM 32.8430 -97.0297 North  Level FlightAware Approximate
Wed 03:39:26 PM 32.8864 -97.0289 115° Southeast 146 168 1,600  Level FAA TRACON SMA TRACON (SMA)
Wed 03:44:04 PM 32.7803 -96.7550 79° East 306 352 10,700 1,962 Climbing FAA TRACON SMA TRACON (SMA)
Wed 03:44:44 PM 32.7917 -96.6819 80° East 328 377 12,000 1,829 Climbing FAA TRACON SMA TRACON (SMA)
Wed 03:45:26 PM 32.8014 -96.6139 71° East 341 392 13,200 1,829 Climbing FAA TRACON SMA TRACON (SMA)
Wed 03:46:06 PM 32.8228 -96.5383 67° East 348 400 14,500 1,950 Climbing FAA TRACON SMA TRACON (SMA)
Wed 03:46:46 PM 32.8489 -96.4642 65° Northeast 352 405 15,800 1,875 Climbing FAA TRACON SMA TRACON (SMA)
Wed 03:47:26 PM 32.8750 -96.3961 66° East 363 418 17,000 2,051 Climbing FAA TRACON SMA TRACON (SMA)
Wed 03:48:05 PM 32.9036 -96.3181 68° East 372 428 18,500 2,127 Climbing FAA TRACON SMA TRACON (SMA)
Wed 03:48:45 PM 32.9308 -96.2381 66° East 378 435 19,800 1,778 Climbing FAA TRACON SMA TRACON (SMA)
Wed 03:49:26 PM 32.9569 -96.1669 64° Northeast 380 437 20,900 1,000 Climbing FAA TRACON SMA TRACON (SMA)
Wed 03:50:03 PM 32.9917 -96.0836 66° East 405 466 21,100 154 Climbing FAA TRACON SMA TRACON (SMA)
Wed 03:50:44 PM 33.0258 -95.9931 68° East 435 501 21,100 -42 Level FAA TRACON SMA TRACON (SMA)
Wed 03:52:27 PM 33.1022 -95.7667 68° East 429 494 21,000 -37 Descending Fort Worth Center
Wed 03:53:27 PM 33.1425 -95.6444 77° East 439 505 21,000 -250 Level Fort Worth Center
Wed 03:54:27 PM 33.1697 -95.5050 114° Southeast 434 499 20,500 -900 Descending Fort Worth Center
Wed 03:55:27 PM 33.1194 -95.3672 119° Southeast 413 475 19,200 -1,350 Descending Fort Worth Center
Wed 03:56:27 PM 33.0608 -95.2397 118° Southeast 421 484 17,800 -1,100 Descending Fort Worth Center
Wed 03:57:27 PM 33.0067 -95.1172 117° Southeast 426 490 17,000 -400 Descending Fort Worth Center
Wed 03:58:27 PM 32.9542 -94.9947 117° Southeast 416 479 17,000  Level Fort Worth Center
Wed 03:59:27 PM 32.8994 -94.8675 116° Southeast 416 479 17,000 -50 Level Fort Worth Center
Wed 04:00:27 PM 32.8489 -94.7453 118° Southeast 416 479 16,900 -1,228 Descending Fort Worth Center
Wed 04:01:34 PM 32.7897 -94.6136 119° Southeast 394 453 14,400 -2,035 Descending Fort Worth Center
Wed 04:02:22 PM 32.7481 -94.5236 116° Southeast 374 430 13,000 -1,046 Descending Fort Worth Center
Wed 04:03:23 PM 32.7061 -94.4236 117° Southeast 347 399 12,500 -1,043 Descending Fort Worth Center
Wed 04:04:17 PM 32.6661 -94.3286 116° Southeast 346 398 11,000 -1,016 Descending Fort Worth Center
Wed 04:05:27 PM 32.6239 -94.2267 118° Southeast 337 388 10,400 -1,154 Descending Fort Worth Center
Wed 04:06:27 PM 32.5797 -94.1269 122° Southeast 313 360 8,500 -1,800 Descending Fort Worth Center
Wed 04:07:27 PM 32.5400 -94.0522 142° Southeast 308 354 6,800 -1,850 Descending Fort Worth Center
Wed 04:08:27 PM 32.4717 -93.9883 141° Southeast 286 329 4,800 -1,750 Descending Fort Worth Center
Wed 04:09:27 PM 32.4222 -93.9408 141° Southeast 271 312 3,300 -1,200 Descending Fort Worth Center
Wed 04:10:27 PM 32.3686 -93.8889 141° Southeast 241 277 2,400 -900 Descending Fort Worth Center

Login

Don't have an account? Register now (free) for customized features, flight alerts, and more!